sensor_id;sensor_type;location;lat;lon;timestamp;pressure;altitude;pressure_sealevel;temperature;humidity
77723;BME280;67811;42.656;23.394;2023-05-07T00:02:02;95275.41;;;10.14;70.20
77723;BME280;67811;42.656;23.394;2023-05-07T00:04:27;95274.50;;;10.07;70.52
77723;BME280;67811;42.656;23.394;2023-05-07T00:06:52;95278.25;;;10.12;70.44
77723;BME280;67811;42.656;23.394;2023-05-07T00:09:17;95274.59;;;10.13;70.00
77723;BME280;67811;42.656;23.394;2023-05-07T00:11:43;95278.28;;;10.04;70.43
77723;BME280;67811;42.656;23.394;2023-05-07T00:14:08;95291.88;;;9.78;71.31
77723;BME280;67811;42.656;23.394;2023-05-07T00:16:33;95293.19;;;9.51;71.99
77723;BME280;67811;42.656;23.394;2023-05-07T00:18:58;95295.91;;;9.35;72.79
77723;BME280;67811;42.656;23.394;2023-05-07T00:21:24;95287.69;;;9.21;73.45
77723;BME280;67811;42.656;23.394;2023-05-07T00:23:49;95287.72;;;9.13;73.98
77723;BME280;67811;42.656;23.394;2023-05-07T00:26:14;95289.00;;;9.26;73.25
77723;BME280;67811;42.656;23.394;2023-05-07T00:28:39;95282.00;;;9.33;73.32
77723;BME280;67811;42.656;23.394;2023-05-07T00:31:05;95283.44;;;9.43;72.88
77723;BME280;67811;42.656;23.394;2023-05-07T00:33:30;95284.72;;;9.56;72.53
77723;BME280;67811;42.656;23.394;2023-05-07T00:35:55;95274.22;;;9.70;71.76
77723;BME280;67811;42.656;23.394;2023-05-07T00:38:21;95282.81;;;9.72;71.56
77723;BME280;67811;42.656;23.394;2023-05-07T00:40:46;95288.75;;;9.74;71.12
77723;BME280;67811;42.656;23.394;2023-05-07T00:43:11;95282.03;;;9.64;71.96
77723;BME280;67811;42.656;23.394;2023-05-07T00:45:37;95283.38;;;9.60;72.10
77723;BME280;67811;42.656;23.394;2023-05-07T00:48:03;95286.69;;;9.62;72.45
77723;BME280;67811;42.656;23.394;2023-05-07T00:50:29;95288.34;;;9.55;72.46
77723;BME280;67811;42.656;23.394;2023-05-07T00:52:55;95295.78;;;9.59;72.22
77723;BME280;67811;42.656;23.394;2023-05-07T00:55:22;95295.59;;;9.61;71.93
77723;BME280;67811;42.656;23.394;2023-05-07T00:57:48;95292.50;;;9.57;72.03
77723;BME280;67811;42.656;23.394;2023-05-07T01:00:14;95297.94;;;9.56;72.38
77723;BME280;67811;42.656;23.394;2023-05-07T01:02:40;95295.22;;;9.41;73.43
77723;BME280;67811;42.656;23.394;2023-05-07T01:05:10;95297.06;;;9.32;73.84
77723;BME280;67811;42.656;23.394;2023-05-07T01:07:38;95294.28;;;9.17;74.61
77723;BME280;67811;42.656;23.394;2023-05-07T01:10:06;95300.38;;;9.34;74.48
77723;BME280;67811;42.656;23.394;2023-05-07T01:12:32;95296.28;;;9.23;74.80
77723;BME280;67811;42.656;23.394;2023-05-07T01:14:58;95300.06;;;9.21;74.93
77723;BME280;67811;42.656;23.394;2023-05-07T01:17:23;95306.06;;;9.15;75.13
77723;BME280;67811;42.656;23.394;2023-05-07T01:19:49;95300.91;;;9.21;75.48
77723;BME280;67811;42.656;23.394;2023-05-07T01:22:16;95299.50;;;8.94;76.40
77723;BME280;67811;42.656;23.394;2023-05-07T01:24:46;95291.50;;;9.11;75.78
77723;BME280;67811;42.656;23.394;2023-05-07T01:27:12;95291.88;;;9.00;76.12
77723;BME280;67811;42.656;23.394;2023-05-07T01:29:37;95302.31;;;8.93;76.29
77723;BME280;67811;42.656;23.394;2023-05-07T01:32:02;95294.22;;;8.94;76.69
77723;BME280;67811;42.656;23.394;2023-05-07T01:34:31;95291.06;;;8.99;76.07
77723;BME280;67811;42.656;23.394;2023-05-07T01:36:58;95287.72;;;9.05;75.97
77723;BME280;67811;42.656;23.394;2023-05-07T01:39:25;95285.22;;;9.12;75.77
77723;BME280;67811;42.656;23.394;2023-05-07T01:41:50;95290.63;;;9.27;75.56
77723;BME280;67811;42.656;23.394;2023-05-07T01:44:16;95272.13;;;9.27;75.24
77723;BME280;67811;42.656;23.394;2023-05-07T01:46:41;95274.91;;;9.33;75.23
77723;BME280;67811;42.656;23.394;2023-05-07T01:49:07;95284.16;;;9.37;75.51
77723;BME280;67811;42.656;23.394;2023-05-07T01:51:33;95284.63;;;9.41;75.70
77723;BME280;67811;42.656;23.394;2023-05-07T01:53:59;95284.59;;;9.49;75.55
77723;BME280;67811;42.656;23.394;2023-05-07T01:56:24;95276.13;;;9.54;75.37
77723;BME280;67811;42.656;23.394;2023-05-07T01:58:50;95275.00;;;9.48;75.39
77723;BME280;67811;42.656;23.394;2023-05-07T02:01:15;95269.00;;;9.54;75.31
77723;BME280;67811;42.656;23.394;2023-05-07T02:03:41;95267.19;;;9.55;75.31
77723;BME280;67811;42.656;23.394;2023-05-07T02:06:06;95267.88;;;9.57;75.17
77723;BME280;67811;42.656;23.394;2023-05-07T02:08:31;95264.94;;;9.43;75.94
77723;BME280;67811;42.656;23.394;2023-05-07T02:10:57;95267.75;;;9.42;76.19
77723;BME280;67811;42.656;23.394;2023-05-07T02:13:22;95258.22;;;9.33;76.18
77723;BME280;67811;42.656;23.394;2023-05-07T02:15:47;95250.41;;;9.39;76.44
77723;BME280;67811;42.656;23.394;2023-05-07T02:18:12;95249.75;;;9.37;76.54
77723;BME280;67811;42.656;23.394;2023-05-07T02:20:38;95250.91;;;9.43;76.95
77723;BME280;67811;42.656;23.394;2023-05-07T02:23:03;95241.50;;;9.40;76.76
77723;BME280;67811;42.656;23.394;2023-05-07T02:25:28;95244.84;;;9.34;77.17
77723;BME280;67811;42.656;23.394;2023-05-07T02:27:53;95256.56;;;9.32;77.53
77723;BME280;67811;42.656;23.394;2023-05-07T02:30:19;95257.06;;;9.35;76.83
77723;BME280;67811;42.656;23.394;2023-05-07T02:32:44;95252.41;;;9.37;77.11
77723;BME280;67811;42.656;23.394;2023-05-07T02:35:09;95260.84;;;9.41;76.89
77723;BME280;67811;42.656;23.394;2023-05-07T02:37:35;95255.97;;;9.53;76.65
77723;BME280;67811;42.656;23.394;2023-05-07T02:40:00;95249.06;;;9.43;76.58
77723;BME280;67811;42.656;23.394;2023-05-07T02:42:25;95248.38;;;9.49;76.83
77723;BME280;67811;42.656;23.394;2023-05-07T02:44:51;95247.22;;;9.52;76.07
77723;BME280;67811;42.656;23.394;2023-05-07T02:47:16;95247.09;;;9.45;76.58
77723;BME280;67811;42.656;23.394;2023-05-07T02:49:41;95257.38;;;9.40;76.76
77723;BME280;67811;42.656;23.394;2023-05-07T02:52:07;95252.59;;;9.36;77.18
77723;BME280;67811;42.656;23.394;2023-05-07T02:54:32;95258.34;;;9.39;76.79
77723;BME280;67811;42.656;23.394;2023-05-07T02:56:57;95254.56;;;9.34;77.63
77723;BME280;67811;42.656;23.394;2023-05-07T02:59:23;95251.59;;;9.37;76.80
77723;BME280;67811;42.656;23.394;2023-05-07T03:01:48;95256.25;;;9.27;77.21
77723;BME280;67811;42.656;23.394;2023-05-07T03:04:14;95258.47;;;9.15;77.57
77723;BME280;67811;42.656;23.394;2023-05-07T03:06:39;95259.94;;;9.17;77.61
77723;BME280;67811;42.656;23.394;2023-05-07T03:09:04;95259.28;;;9.23;77.58
77723;BME280;67811;42.656;23.394;2023-05-07T03:11:30;95256.44;;;9.25;77.48
77723;BME280;67811;42.656;23.394;2023-05-07T03:13:55;95263.72;;;9.23;77.43
77723;BME280;67811;42.656;23.394;2023-05-07T03:16:20;95270.44;;;9.34;77.28
77723;BME280;67811;42.656;23.394;2023-05-07T03:18:45;95269.22;;;9.13;77.85
77723;BME280;67811;42.656;23.394;2023-05-07T03:21:11;95266.19;;;9.24;77.93
77723;BME280;67811;42.656;23.394;2023-05-07T03:23:36;95262.84;;;9.31;77.72
77723;BME280;67811;42.656;23.394;2023-05-07T03:26:01;95274.13;;;9.24;77.64
77723;BME280;67811;42.656;23.394;2023-05-07T03:28:26;95274.94;;;9.25;78.16
77723;BME280;67811;42.656;23.394;2023-05-07T03:30:52;95274.31;;;9.23;78.26
77723;BME280;67811;42.656;23.394;2023-05-07T03:33:17;95275.06;;;9.40;77.89
77723;BME280;67811;42.656;23.394;2023-05-07T03:35:42;95276.19;;;9.45;77.41
77723;BME280;67811;42.656;23.394;2023-05-07T03:38:08;95273.09;;;12.60;87.21
77723;BME280;67811;42.656;23.394;2023-05-07T03:40:33;95262.47;;;14.92;77.03
77723;BME280;67811;42.656;23.394;2023-05-07T03:42:59;95259.06;;;15.49;60.19
77723;BME280;67811;42.656;23.394;2023-05-07T03:45:25;95261.00;;;15.80;64.94
77723;BME280;67811;42.656;23.394;2023-05-07T03:47:50;95264.84;;;15.40;58.37
77723;BME280;67811;42.656;23.394;2023-05-07T03:50:15;95274.13;;;15.17;61.48
77723;BME280;67811;42.656;23.394;2023-05-07T03:52:41;95272.69;;;15.15;63.01
77723;BME280;67811;42.656;23.394;2023-05-07T03:55:06;95272.69;;;15.15;63.16
77723;BME280;67811;42.656;23.394;2023-05-07T03:57:31;95273.66;;;15.40;62.20
77723;BME280;67811;42.656;23.394;2023-05-07T03:59:57;95278.06;;;14.95;58.88
77723;BME280;67811;42.656;23.394;2023-05-07T04:02:22;95279.25;;;15.25;64.30
77723;BME280;67811;42.656;23.394;2023-05-07T04:04:48;95281.81;;;15.65;62.81
77723;BME280;67811;42.656;23.394;2023-05-07T04:07:14;95285.00;;;15.94;61.03
77723;BME280;67811;42.656;23.394;2023-05-07T04:09:39;95288.34;;;15.83;61.14
77723;BME280;67811;42.656;23.394;2023-05-07T04:12:04;95294.53;;;16.21;60.88
77723;BME280;67811;42.656;23.394;2023-05-07T04:14:29;95300.53;;;16.48;58.93
77723;BME280;67811;42.656;23.394;2023-05-07T04:16:55;95304.72;;;16.31;56.25
77723;BME280;67811;42.656;23.394;2023-05-07T04:19:20;95305.31;;;16.40;59.57
77723;BME280;67811;42.656;23.394;2023-05-07T04:21:45;95301.19;;;16.69;58.23
77723;BME280;67811;42.656;23.394;2023-05-07T04:24:10;95311.88;;;16.05;55.97
77723;BME280;67811;42.656;23.394;2023-05-07T04:26:36;95307.88;;;15.76;55.25
77723;BME280;67811;42.656;23.394;2023-05-07T04:29:01;95312.34;;;15.11;59.61
77723;BME280;67811;42.656;23.394;2023-05-07T04:31:26;95326.06;;;14.55;59.10
77723;BME280;67811;42.656;23.394;2023-05-07T04:33:51;95329.38;;;14.70;62.93
77723;BME280;67811;42.656;23.394;2023-05-07T04:36:17;95328.75;;;14.88;61.55
77723;BME280;67811;42.656;23.394;2023-05-07T04:38:42;95325.88;;;15.16;59.16
77723;BME280;67811;42.656;23.394;2023-05-07T04:41:09;95333.09;;;14.89;60.92
77723;BME280;67811;42.656;23.394;2023-05-07T04:43:34;95328.34;;;15.05;63.77
77723;BME280;67811;42.656;23.394;2023-05-07T04:45:59;95333.25;;;15.34;58.95
77723;BME280;67811;42.656;23.394;2023-05-07T04:48:25;95334.72;;;15.17;58.56
77723;BME280;67811;42.656;23.394;2023-05-07T04:50:50;95332.84;;;14.77;60.70
77723;BME280;67811;42.656;23.394;2023-05-07T04:53:16;95326.47;;;14.65;60.92
77723;BME280;67811;42.656;23.394;2023-05-07T04:55:42;95333.50;;;14.05;64.26
77723;BME280;67811;42.656;23.394;2023-05-07T04:58:07;95332.66;;;13.91;64.21
77723;BME280;67811;42.656;23.394;2023-05-07T05:00:32;95334.56;;;13.63;64.66
77723;BME280;67811;42.656;23.394;2023-05-07T05:02:58;95331.78;;;13.84;65.80
77723;BME280;67811;42.656;23.394;2023-05-07T05:05:23;95335.69;;;13.82;66.04
77723;BME280;67811;42.656;23.394;2023-05-07T05:07:48;95332.28;;;14.08;64.53
77723;BME280;67811;42.656;23.394;2023-05-07T05:10:13;95323.03;;;13.90;64.67
77723;BME280;67811;42.656;23.394;2023-05-07T05:12:39;95324.84;;;13.90;64.31
77723;BME280;67811;42.656;23.394;2023-05-07T05:15:05;95319.00;;;13.66;66.18
77723;BME280;67811;42.656;23.394;2023-05-07T05:17:30;95323.03;;;13.90;67.38
77723;BME280;67811;42.656;23.394;2023-05-07T05:19:55;95319.72;;;15.09;65.25
77723;BME280;67811;42.656;23.394;2023-05-07T05:22:21;95320.22;;;15.77;61.97
77723;BME280;67811;42.656;23.394;2023-05-07T05:24:46;95323.13;;;16.14;58.48
77723;BME280;67811;42.656;23.394;2023-05-07T05:27:11;95327.84;;;16.57;57.69
77723;BME280;67811;42.656;23.394;2023-05-07T05:29:37;95328.09;;;16.80;57.33
77723;BME280;67811;42.656;23.394;2023-05-07T05:32:02;95331.81;;;16.79;55.50
77723;BME280;67811;42.656;23.394;2023-05-07T05:34:27;95330.44;;;16.70;55.94
77723;BME280;67811;42.656;23.394;2023-05-07T05:36:52;95329.16;;;17.04;55.38
77723;BME280;67811;42.656;23.394;2023-05-07T05:39:18;95330.91;;;17.17;54.10
77723;BME280;67811;42.656;23.394;2023-05-07T05:41:43;95334.94;;;16.38;56.29
77723;BME280;67811;42.656;23.394;2023-05-07T05:44:08;95329.69;;;16.18;56.79
77723;BME280;67811;42.656;23.394;2023-05-07T05:46:34;95335.44;;;16.60;56.39
77723;BME280;67811;42.656;23.394;2023-05-07T05:49:00;95331.53;;;16.56;56.21
77723;BME280;67811;42.656;23.394;2023-05-07T05:51:25;95328.88;;;17.12;54.65
77723;BME280;67811;42.656;23.394;2023-05-07T05:53:50;95328.13;;;17.49;53.35
77723;BME280;67811;42.656;23.394;2023-05-07T05:56:16;95332.03;;;17.28;53.63
77723;BME280;67811;42.656;23.394;2023-05-07T05:58:41;95330.78;;;16.80;54.84
77723;BME280;67811;42.656;23.394;2023-05-07T06:01:07;95336.09;;;17.12;54.70
77723;BME280;67811;42.656;23.394;2023-05-07T06:03:32;95325.72;;;17.22;54.13
77723;BME280;67811;42.656;23.394;2023-05-07T06:05:57;95331.81;;;16.79;55.01
77723;BME280;67811;42.656;23.394;2023-05-07T06:08:23;95338.59;;;17.32;54.02
77723;BME280;67811;42.656;23.394;2023-05-07T06:10:48;95327.19;;;17.80;52.67
77723;BME280;67811;42.656;23.394;2023-05-07T06:13:13;95331.09;;;18.02;51.41
77723;BME280;67811;42.656;23.394;2023-05-07T06:15:39;95342.03;;;17.39;52.56
77723;BME280;67811;42.656;23.394;2023-05-07T06:18:04;95340.56;;;17.43;52.90
77723;BME280;67811;42.656;23.394;2023-05-07T06:20:29;95327.22;;;18.47;51.48
77723;BME280;67811;42.656;23.394;2023-05-07T06:22:54;95320.72;;;19.08;49.06
77723;BME280;67811;42.656;23.394;2023-05-07T06:25:20;95310.81;;;19.08;48.48
77723;BME280;67811;42.656;23.394;2023-05-07T06:27:45;95318.34;;;18.76;48.89
77723;BME280;67811;42.656;23.394;2023-05-07T06:30:10;95315.88;;;18.14;50.48
77723;BME280;67811;42.656;23.394;2023-05-07T06:32:36;95316.25;;;18.00;51.94
77723;BME280;67811;42.656;23.394;2023-05-07T06:35:01;95316.44;;;18.16;51.21
77723;BME280;67811;42.656;23.394;2023-05-07T06:37:27;95314.78;;;18.34;51.82
77723;BME280;67811;42.656;23.394;2023-05-07T06:39:52;95307.25;;;18.84;49.89
77723;BME280;67811;42.656;23.394;2023-05-07T06:42:17;95308.75;;;18.68;49.00
77723;BME280;67811;42.656;23.394;2023-05-07T06:44:42;95316.72;;;18.57;50.59
77723;BME280;67811;42.656;23.394;2023-05-07T06:47:08;95303.53;;;18.85;49.19
77723;BME280;67811;42.656;23.394;2023-05-07T06:49:33;95300.41;;;19.70;46.89
77723;BME280;67811;42.656;23.394;2023-05-07T06:51:58;95298.84;;;20.67;45.25
77723;BME280;67811;42.656;23.394;2023-05-07T06:54:24;95289.66;;;21.30;42.86
77723;BME280;67811;42.656;23.394;2023-05-07T06:56:49;95291.84;;;20.99;43.27
77723;BME280;67811;42.656;23.394;2023-05-07T06:59:15;95286.66;;;20.36;44.70
77723;BME280;67811;42.656;23.394;2023-05-07T07:01:41;95284.94;;;20.30;44.60
77723;BME280;67811;42.656;23.394;2023-05-07T07:04:06;95290.56;;;20.28;45.12
77723;BME280;67811;42.656;23.394;2023-05-07T07:06:31;95292.66;;;20.83;45.62
77723;BME280;67811;42.656;23.394;2023-05-07T07:08:58;95292.13;;;21.53;43.75
77723;BME280;67811;42.656;23.394;2023-05-07T07:11:23;95282.63;;;22.55;41.56
77723;BME280;67811;42.656;23.394;2023-05-07T07:13:48;95289.38;;;22.85;38.86
77723;BME280;67811;42.656;23.394;2023-05-07T07:16:14;95288.88;;;22.34;39.25
77723;BME280;67811;42.656;23.394;2023-05-07T07:18:39;95284.41;;;21.79;40.43
77723;BME280;67811;42.656;23.394;2023-05-07T07:21:04;95282.03;;;21.27;41.63
77723;BME280;67811;42.656;23.394;2023-05-07T07:23:29;95282.53;;;21.24;41.23
77723;BME280;67811;42.656;23.394;2023-05-07T07:25:55;95285.47;;;21.05;41.39
77723;BME280;67811;42.656;23.394;2023-05-07T07:28:20;95276.16;;;20.79;42.65
77723;BME280;67811;42.656;23.394;2023-05-07T07:30:46;95273.88;;;21.05;42.21
77723;BME280;67811;42.656;23.394;2023-05-07T07:33:11;95270.38;;;22.21;40.91
77723;BME280;67811;42.656;23.394;2023-05-07T07:35:36;95270.66;;;21.80;40.53
77723;BME280;67811;42.656;23.394;2023-05-07T07:38:02;95273.28;;;21.75;41.22
77723;BME280;67811;42.656;23.394;2023-05-07T07:40:27;95281.22;;;21.82;40.90
77723;BME280;67811;42.656;23.394;2023-05-07T07:42:53;95288.28;;;21.66;41.73
77723;BME280;67811;42.656;23.394;2023-05-07T07:45:19;95290.13;;;22.04;40.65
77723;BME280;67811;42.656;23.394;2023-05-07T07:47:44;95285.44;;;22.17;40.57
77723;BME280;67811;42.656;23.394;2023-05-07T07:50:09;95285.56;;;22.81;39.47
77723;BME280;67811;42.656;23.394;2023-05-07T07:52:35;95286.66;;;23.12;38.80
77723;BME280;67811;42.656;23.394;2023-05-07T07:55:00;95283.13;;;23.44;38.40
77723;BME280;67811;42.656;23.394;2023-05-07T07:57:26;95288.59;;;23.17;38.44
77723;BME280;67811;42.656;23.394;2023-05-07T07:59:51;95289.03;;;22.22;38.89
77723;BME280;67811;42.656;23.394;2023-05-07T08:02:16;95284.09;;;22.41;39.79
77723;BME280;67811;42.656;23.394;2023-05-07T08:04:42;95290.47;;;22.57;40.06
77723;BME280;67811;42.656;23.394;2023-05-07T08:07:07;95282.03;;;23.07;39.67
77723;BME280;67811;42.656;23.394;2023-05-07T08:09:32;95283.00;;;22.96;38.63
77723;BME280;67811;42.656;23.394;2023-05-07T08:11:58;95273.53;;;23.63;38.42
77723;BME280;67811;42.656;23.394;2023-05-07T08:14:23;95280.75;;;23.52;37.95
77723;BME280;67811;42.656;23.394;2023-05-07T08:16:48;95281.09;;;24.18;37.24
77723;BME280;67811;42.656;23.394;2023-05-07T08:19:14;95277.25;;;24.04;36.15
77723;BME280;67811;42.656;23.394;2023-05-07T08:21:39;95272.25;;;23.76;35.90
77723;BME280;67811;42.656;23.394;2023-05-07T08:24:05;95278.25;;;23.88;36.20
77723;BME280;67811;42.656;23.394;2023-05-07T08:26:30;95274.34;;;24.21;35.08
77723;BME280;67811;42.656;23.394;2023-05-07T08:28:55;95268.09;;;24.15;35.26
77723;BME280;67811;42.656;23.394;2023-05-07T08:31:20;95266.34;;;23.42;36.18
77723;BME280;67811;42.656;23.394;2023-05-07T08:33:46;95273.41;;;23.10;36.28
77723;BME280;67811;42.656;23.394;2023-05-07T08:36:11;95268.94;;;23.26;37.15
77723;BME280;67811;42.656;23.394;2023-05-07T08:38:36;95263.53;;;24.31;36.04
77723;BME280;67811;42.656;23.394;2023-05-07T08:41:02;95263.41;;;25.04;34.35
77723;BME280;67811;42.656;23.394;2023-05-07T08:43:27;95262.91;;;25.17;33.49
77723;BME280;67811;42.656;23.394;2023-05-07T08:45:53;95254.47;;;25.39;33.01
77723;BME280;67811;42.656;23.394;2023-05-07T08:48:22;95263.63;;;25.74;31.99
77723;BME280;67811;42.656;23.394;2023-05-07T08:50:49;95254.03;;;26.07;31.93
77723;BME280;67811;42.656;23.394;2023-05-07T08:53:16;95255.06;;;26.21;30.86
77723;BME280;67811;42.656;23.394;2023-05-07T08:55:41;95257.69;;;26.37;30.05
77723;BME280;67811;42.656;23.394;2023-05-07T08:58:06;95257.47;;;26.77;27.52
77723;BME280;67811;42.656;23.394;2023-05-07T09:00:32;95249.09;;;27.03;27.64
77723;BME280;67811;42.656;23.394;2023-05-07T09:02:57;95242.34;;;27.35;28.23
77723;BME280;67811;42.656;23.394;2023-05-07T09:05:22;95243.22;;;27.59;27.71
77723;BME280;67811;42.656;23.394;2023-05-07T09:07:48;95236.31;;;27.67;27.19
77723;BME280;67811;42.656;23.394;2023-05-07T09:10:13;95235.03;;;27.59;25.99
77723;BME280;67811;42.656;23.394;2023-05-07T09:12:39;95233.59;;;26.20;27.78
77723;BME280;67811;42.656;23.394;2023-05-07T09:15:05;95247.13;;;24.99;27.96
77723;BME280;67811;42.656;23.394;2023-05-07T09:17:30;95233.75;;;24.31;29.01
77723;BME280;67811;42.656;23.394;2023-05-07T09:19:55;95233.81;;;23.79;27.94
77723;BME280;67811;42.656;23.394;2023-05-07T09:22:21;95227.47;;;23.53;30.83
77723;BME280;67811;42.656;23.394;2023-05-07T09:24:49;95233.56;;;24.53;31.12
77723;BME280;67811;42.656;23.394;2023-05-07T09:27:15;95221.31;;;25.53;28.93
77723;BME280;67811;42.656;23.394;2023-05-07T09:29:41;95223.25;;;25.42;28.91
77723;BME280;67811;42.656;23.394;2023-05-07T09:32:07;95222.16;;;25.48;29.15
77723;BME280;67811;42.656;23.394;2023-05-07T09:34:34;95219.75;;;24.95;28.93
77723;BME280;67811;42.656;23.394;2023-05-07T09:37:04;95224.06;;;24.56;29.59
77723;BME280;67811;42.656;23.394;2023-05-07T09:39:44;95215.09;;;25.57;28.99
77723;BME280;67811;42.656;23.394;2023-05-07T09:42:09;95212.91;;;25.49;28.56
77723;BME280;67811;42.656;23.394;2023-05-07T09:44:35;95210.03;;;26.10;27.44
77723;BME280;67811;42.656;23.394;2023-05-07T09:47:04;95206.16;;;26.21;26.44
77723;BME280;67811;42.656;23.394;2023-05-07T09:49:30;95209.94;;;25.56;27.64
77723;BME280;67811;42.656;23.394;2023-05-07T09:51:57;95199.28;;;26.34;26.17
77723;BME280;67811;42.656;23.394;2023-05-07T09:54:25;95199.13;;;26.99;25.05
77723;BME280;67811;42.656;23.394;2023-05-07T09:56:51;95198.53;;;27.60;24.87
77723;BME280;67811;42.656;23.394;2023-05-07T09:59:17;95199.00;;;27.67;24.59
77723;BME280;67811;42.656;23.394;2023-05-07T10:01:43;95194.13;;;28.36;22.99
77723;BME280;67811;42.656;23.394;2023-05-07T10:04:10;95196.66;;;27.84;22.63
77723;BME280;67811;42.656;23.394;2023-05-07T10:06:35;95185.69;;;27.90;24.56
77723;BME280;67811;42.656;23.394;2023-05-07T10:09:02;95184.13;;;27.83;23.21
77723;BME280;67811;42.656;23.394;2023-05-07T10:11:27;95184.25;;;27.97;23.74
77723;BME280;67811;42.656;23.394;2023-05-07T10:13:53;95182.16;;;27.89;22.92
77723;BME280;67811;42.656;23.394;2023-05-07T10:16:18;95181.63;;;28.30;23.35
77723;BME280;67811;42.656;23.394;2023-05-07T10:18:46;95175.16;;;27.59;24.24
77723;BME280;67811;42.656;23.394;2023-05-07T10:21:18;95177.69;;;27.74;23.64
77723;BME280;67811;42.656;23.394;2023-05-07T10:23:45;95177.31;;;27.09;23.41
77723;BME280;67811;42.656;23.394;2023-05-07T10:26:12;95175.63;;;25.90;24.81
77723;BME280;67811;42.656;23.394;2023-05-07T10:28:42;95165.47;;;25.41;25.83
77723;BME280;67811;42.656;23.394;2023-05-07T10:33:51;95160.53;;;26.92;23.73
77723;BME280;67811;42.656;23.394;2023-05-07T10:36:17;95156.31;;;27.39;22.92
77723;BME280;67811;42.656;23.394;2023-05-07T10:38:43;95152.94;;;27.76;22.68
77723;BME280;67811;42.656;23.394;2023-05-07T10:41:09;95147.47;;;28.19;22.73
77723;BME280;67811;42.656;23.394;2023-05-07T10:43:39;95152.47;;;28.49;21.86
77723;BME280;67811;42.656;23.394;2023-05-07T10:51:28;95153.00;;;28.32;22.96
77723;BME280;67811;42.656;23.394;2023-05-07T10:56:41;95148.09;;;28.10;23.07
77723;BME280;67811;42.656;23.394;2023-05-07T11:01:54;95141.19;;;28.56;22.40
77723;BME280;67811;42.656;23.394;2023-05-07T11:04:20;95143.91;;;28.56;22.09
77723;BME280;67811;42.656;23.394;2023-05-07T11:09:54;95142.69;;;28.48;22.02
77723;BME280;67811;42.656;23.394;2023-05-07T11:15:06;95139.88;;;27.49;22.06
77723;BME280;67811;42.656;23.394;2023-05-07T11:17:33;95143.19;;;26.09;23.90
77723;BME280;67811;42.656;23.394;2023-05-07T11:19:58;95138.41;;;26.74;24.47
77723;BME280;67811;42.656;23.394;2023-05-07T11:25:02;95143.22;;;27.70;23.59
77723;BME280;67811;42.656;23.394;2023-05-07T11:27:27;95133.00;;;27.80;23.25
77723;BME280;67811;42.656;23.394;2023-05-07T11:29:53;95126.00;;;28.12;22.54
77723;BME280;67811;42.656;23.394;2023-05-07T11:32:26;95126.25;;;27.97;22.33
77723;BME280;67811;42.656;23.394;2023-05-07T11:34:52;95127.31;;;27.77;22.15
77723;BME280;67811;42.656;23.394;2023-05-07T11:37:18;95122.25;;;27.41;22.65
77723;BME280;67811;42.656;23.394;2023-05-07T11:39:44;95119.59;;;26.83;23.45
77723;BME280;67811;42.656;23.394;2023-05-07T11:42:45;95130.63;;;26.63;24.02
77723;BME280;67811;42.656;23.394;2023-05-07T11:45:10;95127.19;;;26.52;24.30
77723;BME280;67811;42.656;23.394;2023-05-07T11:47:36;95117.00;;;26.97;23.23
77723;BME280;67811;42.656;23.394;2023-05-07T11:50:04;95114.44;;;27.11;23.34
77723;BME280;67811;42.656;23.394;2023-05-07T11:52:29;95120.59;;;27.45;23.00
77723;BME280;67811;42.656;23.394;2023-05-07T11:54:57;95121.28;;;27.56;23.16
77723;BME280;67811;42.656;23.394;2023-05-07T11:57:24;95118.66;;;27.94;22.36
77723;BME280;67811;42.656;23.394;2023-05-07T11:59:59;95112.75;;;28.05;21.64
77723;BME280;67811;42.656;23.394;2023-05-07T12:02:25;95118.66;;;27.94;20.68
77723;BME280;67811;42.656;23.394;2023-05-07T12:04:51;95114.63;;;27.19;21.52
77723;BME280;67811;42.656;23.394;2023-05-07T12:07:17;95107.94;;;26.04;23.31
77723;BME280;67811;42.656;23.394;2023-05-07T12:09:43;95103.66;;;26.37;23.27
77723;BME280;67811;42.656;23.394;2023-05-07T12:12:09;95097.41;;;26.32;23.43
77723;BME280;67811;42.656;23.394;2023-05-07T12:14:41;95098.19;;;26.76;23.56
77723;BME280;67811;42.656;23.394;2023-05-07T12:17:11;95086.84;;;27.22;21.55
77723;BME280;67811;42.656;23.394;2023-05-07T12:19:38;95097.03;;;26.83;21.86
77723;BME280;67811;42.656;23.394;2023-05-07T12:22:04;95090.78;;;26.48;22.62
77723;BME280;67811;42.656;23.394;2023-05-07T12:24:48;95092.84;;;26.27;22.49
77723;BME280;67811;42.656;23.394;2023-05-07T12:27:14;95086.81;;;26.98;22.56
77723;BME280;67811;42.656;23.394;2023-05-07T12:29:39;95083.00;;;27.71;21.56
77723;BME280;67811;42.656;23.394;2023-05-07T12:32:13;95069.72;;;27.65;21.99
77723;BME280;67811;42.656;23.394;2023-05-07T12:34:39;95070.25;;;27.67;22.07
77723;BME280;67811;42.656;23.394;2023-05-07T12:37:04;95070.22;;;27.48;22.58
77723;BME280;67811;42.656;23.394;2023-05-07T12:39:30;95065.59;;;27.48;22.43
77723;BME280;67811;42.656;23.394;2023-05-07T12:41:57;95062.88;;;27.67;22.83
77723;BME280;67811;42.656;23.394;2023-05-07T12:44:23;95070.22;;;27.48;22.03
77723;BME280;67811;42.656;23.394;2023-05-07T12:46:48;95060.63;;;27.31;22.15
77723;BME280;67811;42.656;23.394;2023-05-07T12:49:14;95062.06;;;27.48;22.13
77723;BME280;67811;42.656;23.394;2023-05-07T12:51:39;95059.09;;;27.87;21.33
77723;BME280;67811;42.656;23.394;2023-05-07T12:54:04;95059.00;;;28.11;20.43
77723;BME280;67811;42.656;23.394;2023-05-07T12:56:35;95044.78;;;28.52;20.59
77723;BME280;67811;42.656;23.394;2023-05-07T12:59:01;95042.28;;;28.18;20.53
77723;BME280;67811;42.656;23.394;2023-05-07T13:01:30;95052.28;;;28.22;20.47
77723;BME280;67811;42.656;23.394;2023-05-07T13:03:55;95031.31;;;28.42;20.22
77723;BME280;67811;42.656;23.394;2023-05-07T13:06:21;95033.09;;;28.14;20.30
77723;BME280;67811;42.656;23.394;2023-05-07T13:08:46;95031.84;;;28.06;20.96